sensor_id;sensor_type;location;lat;lon;timestamp;P1;durP1;ratioP1;P2;durP2;ratioP2
42832;SDS011;64089;51.478;5.692;2023-02-15T00:01:49;39.08;;;16.42;;
42832;SDS011;64089;51.478;5.692;2023-02-15T00:04:15;44.42;;;17.67;;
42832;SDS011;64089;51.478;5.692;2023-02-15T00:06:43;42.63;;;17.38;;
42832;SDS011;64089;51.478;5.692;2023-02-15T00:09:09;44.22;;;15.95;;
42832;SDS011;64089;51.478;5.692;2023-02-15T00:11:35;40.75;;;15.23;;
42832;SDS011;64089;51.478;5.692;2023-02-15T00:14:12;41.80;;;16.23;;
42832;SDS011;64089;51.478;5.692;2023-02-15T00:16:40;38.15;;;15.30;;
42832;SDS011;64089;51.478;5.692;2023-02-15T00:19:07;42.47;;;16.40;;
42832;SDS011;64089;51.478;5.692;2023-02-15T00:21:33;39.78;;;16.83;;
42832;SDS011;64089;51.478;5.692;2023-02-15T00:24:00;43.17;;;17.23;;
42832;SDS011;64089;51.478;5.692;2023-02-15T00:26:28;33.63;;;15.48;;
42832;SDS011;64089;51.478;5.692;2023-02-15T00:28:54;35.03;;;15.45;;
42832;SDS011;64089;51.478;5.692;2023-02-15T00:31:21;35.85;;;16.25;;
42832;SDS011;64089;51.478;5.692;2023-02-15T00:33:46;33.00;;;14.45;;
42832;SDS011;64089;51.478;5.692;2023-02-15T00:36:12;36.80;;;15.50;;
42832;SDS011;64089;51.478;5.692;2023-02-15T00:38:39;42.13;;;16.02;;
42832;SDS011;64089;51.478;5.692;2023-02-15T00:41:05;39.10;;;15.52;;
42832;SDS011;64089;51.478;5.692;2023-02-15T00:43:33;44.58;;;16.65;;
42832;SDS011;64089;51.478;5.692;2023-02-15T00:45:59;41.38;;;17.10;;
42832;SDS011;64089;51.478;5.692;2023-02-15T00:48:25;42.85;;;18.50;;
42832;SDS011;64089;51.478;5.692;2023-02-15T00:50:52;37.90;;;15.65;;
42832;SDS011;64089;51.478;5.692;2023-02-15T00:53:19;47.78;;;16.02;;
42832;SDS011;64089;51.478;5.692;2023-02-15T00:55:45;46.40;;;17.45;;
42832;SDS011;64089;51.478;5.692;2023-02-15T00:58:11;46.67;;;17.75;;
42832;SDS011;64089;51.478;5.692;2023-02-15T01:00:38;38.92;;;14.77;;
42832;SDS011;64089;51.478;5.692;2023-02-15T01:03:05;42.20;;;16.17;;
42832;SDS011;64089;51.478;5.692;2023-02-15T01:05:31;35.70;;;16.80;;
42832;SDS011;64089;51.478;5.692;2023-02-15T01:07:57;37.75;;;16.25;;
42832;SDS011;64089;51.478;5.692;2023-02-15T01:10:23;37.03;;;15.40;;
42832;SDS011;64089;51.478;5.692;2023-02-15T01:12:50;41.60;;;16.33;;
42832;SDS011;64089;51.478;5.692;2023-02-15T01:15:16;35.92;;;15.30;;
42832;SDS011;64089;51.478;5.692;2023-02-15T01:17:42;35.92;;;15.48;;
42832;SDS011;64089;51.478;5.692;2023-02-15T01:20:10;35.00;;;14.90;;
42832;SDS011;64089;51.478;5.692;2023-02-15T01:22:36;43.58;;;17.42;;
42832;SDS011;64089;51.478;5.692;2023-02-15T01:25:02;42.67;;;15.80;;
42832;SDS011;64089;51.478;5.692;2023-02-15T01:27:28;36.25;;;14.30;;
42832;SDS011;64089;51.478;5.692;2023-02-15T01:29:57;46.10;;;15.93;;
42832;SDS011;64089;51.478;5.692;2023-02-15T01:32:23;32.63;;;15.23;;
42832;SDS011;64089;51.478;5.692;2023-02-15T01:34:48;45.50;;;15.63;;
42832;SDS011;64089;51.478;5.692;2023-02-15T01:37:14;41.35;;;15.68;;
42832;SDS011;64089;51.478;5.692;2023-02-15T01:39:39;41.67;;;14.30;;
42832;SDS011;64089;51.478;5.692;2023-02-15T01:42:05;39.97;;;15.93;;
42832;SDS011;64089;51.478;5.692;2023-02-15T01:55:42;37.38;;;15.52;;
42832;SDS011;64089;51.478;5.692;2023-02-15T01:58:15;39.35;;;16.40;;
42832;SDS011;64089;51.478;5.692;2023-02-15T02:00:41;41.95;;;15.95;;
42832;SDS011;64089;51.478;5.692;2023-02-15T02:03:08;42.90;;;15.02;;
42832;SDS011;64089;51.478;5.692;2023-02-15T02:05:34;35.05;;;14.65;;
42832;SDS011;64089;51.478;5.692;2023-02-15T02:08:01;33.58;;;14.35;;
42832;SDS011;64089;51.478;5.692;2023-02-15T02:10:27;43.30;;;17.58;;
42832;SDS011;64089;51.478;5.692;2023-02-15T02:13:00;43.88;;;15.05;;
42832;SDS011;64089;51.478;5.692;2023-02-15T02:15:39;33.60;;;14.40;;
42832;SDS011;64089;51.478;5.692;2023-02-15T02:18:17;32.70;;;13.32;;
42832;SDS011;64089;51.478;5.692;2023-02-15T02:23:51;34.88;;;14.48;;
42832;SDS011;64089;51.478;5.692;2023-02-15T02:34:16;33.42;;;14.88;;
42832;SDS011;64089;51.478;5.692;2023-02-15T02:42:27;37.67;;;14.50;;
42832;SDS011;64089;51.478;5.692;2023-02-15T02:45:20;30.20;;;13.63;;
42832;SDS011;64089;51.478;5.692;2023-02-15T02:47:55;30.25;;;13.73;;
42832;SDS011;64089;51.478;5.692;2023-02-15T02:50:27;43.63;;;15.00;;
42832;SDS011;64089;51.478;5.692;2023-02-15T02:52:55;37.25;;;14.63;;
42832;SDS011;64089;51.478;5.692;2023-02-15T02:55:23;39.28;;;15.13;;
42832;SDS011;64089;51.478;5.692;2023-02-15T02:58:23;39.88;;;14.98;;
42832;SDS011;64089;51.478;5.692;2023-02-15T03:01:17;45.42;;;14.10;;
42832;SDS011;64089;51.478;5.692;2023-02-15T03:04:01;33.08;;;13.18;;
42832;SDS011;64089;51.478;5.692;2023-02-15T03:09:11;35.00;;;14.60;;
42832;SDS011;64089;51.478;5.692;2023-02-15T03:11:46;47.58;;;15.93;;
42832;SDS011;64089;51.478;5.692;2023-02-15T03:14:13;37.20;;;14.55;;
42832;SDS011;64089;51.478;5.692;2023-02-15T03:16:41;47.78;;;17.10;;
42832;SDS011;64089;51.478;5.692;2023-02-15T03:19:12;43.35;;;14.50;;
42832;SDS011;64089;51.478;5.692;2023-02-15T03:21:44;43.13;;;13.90;;
42832;SDS011;64089;51.478;5.692;2023-02-15T03:24:15;39.13;;;15.45;;
42832;SDS011;64089;51.478;5.692;2023-02-15T03:26:46;36.38;;;15.45;;
42832;SDS011;64089;51.478;5.692;2023-02-15T03:29:14;31.95;;;14.23;;
42832;SDS011;64089;51.478;5.692;2023-02-15T03:31:42;38.97;;;13.93;;
42832;SDS011;64089;51.478;5.692;2023-02-15T03:34:11;41.22;;;13.73;;
42832;SDS011;64089;51.478;5.692;2023-02-15T03:36:44;31.98;;;14.35;;
42832;SDS011;64089;51.478;5.692;2023-02-15T03:41:48;34.72;;;15.70;;
42832;SDS011;64089;51.478;5.692;2023-02-15T03:44:37;33.33;;;14.30;;
42832;SDS011;64089;51.478;5.692;2023-02-15T03:47:21;31.92;;;13.55;;
42832;SDS011;64089;51.478;5.692;2023-02-15T03:49:55;36.53;;;13.05;;
42832;SDS011;64089;51.478;5.692;2023-02-15T03:52:52;34.72;;;13.05;;
42832;SDS011;64089;51.478;5.692;2023-02-15T03:55:19;38.92;;;14.60;;
42832;SDS011;64089;51.478;5.692;2023-02-15T03:57:45;31.25;;;13.68;;
42832;SDS011;64089;51.478;5.692;2023-02-15T04:00:29;31.90;;;12.63;;
42832;SDS011;64089;51.478;5.692;2023-02-15T04:03:23;33.67;;;13.63;;
42832;SDS011;64089;51.478;5.692;2023-02-15T04:05:57;33.92;;;12.75;;
42832;SDS011;64089;51.478;5.692;2023-02-15T04:08:23;32.15;;;14.02;;
42832;SDS011;64089;51.478;5.692;2023-02-15T04:11:08;33.28;;;13.00;;
42832;SDS011;64089;51.478;5.692;2023-02-15T04:13:34;35.10;;;14.30;;
42832;SDS011;64089;51.478;5.692;2023-02-15T04:16:00;37.05;;;14.10;;
42832;SDS011;64089;51.478;5.692;2023-02-15T04:18:41;35.28;;;13.95;;
42832;SDS011;64089;51.478;5.692;2023-02-15T04:21:27;31.67;;;13.55;;
42832;SDS011;64089;51.478;5.692;2023-02-15T04:24:13;32.63;;;12.88;;
42832;SDS011;64089;51.478;5.692;2023-02-15T04:26:58;39.60;;;14.43;;
42832;SDS011;64089;51.478;5.692;2023-02-15T04:29:24;38.90;;;14.60;;
42832;SDS011;64089;51.478;5.692;2023-02-15T04:31:51;31.83;;;12.85;;
42832;SDS011;64089;51.478;5.692;2023-02-15T04:34:19;30.35;;;12.43;;
42832;SDS011;64089;51.478;5.692;2023-02-15T04:36:45;36.78;;;13.38;;
42832;SDS011;64089;51.478;5.692;2023-02-15T04:39:14;32.92;;;13.05;;
42832;SDS011;64089;51.478;5.692;2023-02-15T04:41:41;31.55;;;13.25;;
42832;SDS011;64089;51.478;5.692;2023-02-15T04:44:07;34.92;;;13.20;;
42832;SDS011;64089;51.478;5.692;2023-02-15T04:46:33;39.35;;;14.00;;
42832;SDS011;64089;51.478;5.692;2023-02-15T04:48:59;33.45;;;13.30;;
42832;SDS011;64089;51.478;5.692;2023-02-15T04:51:25;28.65;;;13.15;;
42832;SDS011;64089;51.478;5.692;2023-02-15T04:53:50;34.60;;;14.23;;
42832;SDS011;64089;51.478;5.692;2023-02-15T04:56:22;33.42;;;13.25;;
42832;SDS011;64089;51.478;5.692;2023-02-15T04:58:48;31.20;;;12.02;;
42832;SDS011;64089;51.478;5.692;2023-02-15T05:01:13;32.40;;;13.35;;
42832;SDS011;64089;51.478;5.692;2023-02-15T05:03:39;32.10;;;12.68;;
42832;SDS011;64089;51.478;5.692;2023-02-15T05:06:08;33.15;;;11.80;;
42832;SDS011;64089;51.478;5.692;2023-02-15T05:08:33;31.98;;;13.30;;
42832;SDS011;64089;51.478;5.692;2023-02-15T05:10:59;35.90;;;14.38;;
42832;SDS011;64089;51.478;5.692;2023-02-15T05:13:25;37.58;;;13.32;;
42832;SDS011;64089;51.478;5.692;2023-02-15T05:15:51;35.42;;;14.02;;
42832;SDS011;64089;51.478;5.692;2023-02-15T05:18:18;49.72;;;17.75;;
42832;SDS011;64089;51.478;5.692;2023-02-15T05:20:45;42.08;;;16.70;;
42832;SDS011;64089;51.478;5.692;2023-02-15T05:23:11;46.30;;;16.85;;
42832;SDS011;64089;51.478;5.692;2023-02-15T05:25:37;45.88;;;17.13;;
42832;SDS011;64089;51.478;5.692;2023-02-15T05:28:22;40.53;;;14.40;;
42832;SDS011;64089;51.478;5.692;2023-02-15T05:30:50;39.38;;;13.95;;
42832;SDS011;64089;51.478;5.692;2023-02-15T05:33:25;30.50;;;13.65;;
42832;SDS011;64089;51.478;5.692;2023-02-15T05:35:51;35.55;;;13.68;;
42832;SDS011;64089;51.478;5.692;2023-02-15T05:38:16;43.28;;;14.48;;
42832;SDS011;64089;51.478;5.692;2023-02-15T05:40:42;35.65;;;14.70;;
42832;SDS011;64089;51.478;5.692;2023-02-15T05:43:08;33.35;;;14.93;;
42832;SDS011;64089;51.478;5.692;2023-02-15T05:45:33;39.40;;;14.80;;
42832;SDS011;64089;51.478;5.692;2023-02-15T05:47:59;34.25;;;14.15;;
42832;SDS011;64089;51.478;5.692;2023-02-15T05:50:24;40.13;;;14.73;;
42832;SDS011;64089;51.478;5.692;2023-02-15T05:52:51;35.78;;;14.05;;
42832;SDS011;64089;51.478;5.692;2023-02-15T05:55:17;34.30;;;13.77;;
42832;SDS011;64089;51.478;5.692;2023-02-15T05:57:42;38.13;;;14.68;;
42832;SDS011;64089;51.478;5.692;2023-02-15T06:00:08;37.80;;;14.93;;
42832;SDS011;64089;51.478;5.692;2023-02-15T06:02:35;41.47;;;15.57;;
42832;SDS011;64089;51.478;5.692;2023-02-15T06:05:01;34.92;;;13.68;;
42832;SDS011;64089;51.478;5.692;2023-02-15T06:07:27;36.40;;;14.63;;
42832;SDS011;64089;51.478;5.692;2023-02-15T06:09:53;50.92;;;16.13;;
42832;SDS011;64089;51.478;5.692;2023-02-15T06:12:19;36.72;;;14.73;;
42832;SDS011;64089;51.478;5.692;2023-02-15T06:14:45;37.22;;;15.45;;
42832;SDS011;64089;51.478;5.692;2023-02-15T06:17:10;30.75;;;13.52;;
42832;SDS011;64089;51.478;5.692;2023-02-15T06:19:36;42.90;;;15.57;;
42832;SDS011;64089;51.478;5.692;2023-02-15T06:22:01;38.05;;;14.45;;
42832;SDS011;64089;51.478;5.692;2023-02-15T06:24:27;42.85;;;15.10;;
42832;SDS011;64089;51.478;5.692;2023-02-15T06:26:52;39.53;;;15.52;;
42832;SDS011;64089;51.478;5.692;2023-02-15T06:29:18;38.85;;;15.52;;
42832;SDS011;64089;51.478;5.692;2023-02-15T06:31:44;41.15;;;15.50;;
42832;SDS011;64089;51.478;5.692;2023-02-15T06:34:09;35.00;;;13.40;;
42832;SDS011;64089;51.478;5.692;2023-02-15T06:36:35;41.22;;;15.52;;
42832;SDS011;64089;51.478;5.692;2023-02-15T06:39:01;35.60;;;14.73;;
42832;SDS011;64089;51.478;5.692;2023-02-15T06:41:28;35.05;;;14.45;;
42832;SDS011;64089;51.478;5.692;2023-02-15T06:43:53;39.15;;;15.38;;
42832;SDS011;64089;51.478;5.692;2023-02-15T06:46:22;40.67;;;14.65;;
42832;SDS011;64089;51.478;5.692;2023-02-15T06:48:47;41.13;;;16.42;;
42832;SDS011;64089;51.478;5.692;2023-02-15T06:51:13;43.70;;;16.77;;
42832;SDS011;64089;51.478;5.692;2023-02-15T06:53:39;43.58;;;16.88;;
42832;SDS011;64089;51.478;5.692;2023-02-15T06:56:07;30.92;;;14.35;;
42832;SDS011;64089;51.478;5.692;2023-02-15T06:58:37;49.00;;;16.42;;
42832;SDS011;64089;51.478;5.692;2023-02-15T07:01:04;41.05;;;15.65;;
42832;SDS011;64089;51.478;5.692;2023-02-15T07:03:31;34.33;;;15.05;;
42832;SDS011;64089;51.478;5.692;2023-02-15T07:05:58;40.75;;;16.52;;
42832;SDS011;64089;51.478;5.692;2023-02-15T07:08:24;42.40;;;15.98;;
42832;SDS011;64089;51.478;5.692;2023-02-15T07:10:51;45.47;;;16.08;;
42832;SDS011;64089;51.478;5.692;2023-02-15T07:13:18;47.53;;;17.52;;
42832;SDS011;64089;51.478;5.692;2023-02-15T07:15:47;47.75;;;17.00;;
42832;SDS011;64089;51.478;5.692;2023-02-15T07:18:13;45.95;;;17.13;;
42832;SDS011;64089;51.478;5.692;2023-02-15T07:20:39;45.75;;;16.77;;
42832;SDS011;64089;51.478;5.692;2023-02-15T07:23:06;48.42;;;18.15;;
42832;SDS011;64089;51.478;5.692;2023-02-15T07:25:33;53.55;;;17.80;;
42832;SDS011;64089;51.478;5.692;2023-02-15T07:27:59;49.78;;;16.80;;
42832;SDS011;64089;51.478;5.692;2023-02-15T07:30:26;44.42;;;18.00;;
42832;SDS011;64089;51.478;5.692;2023-02-15T07:32:56;40.53;;;16.95;;
42832;SDS011;64089;51.478;5.692;2023-02-15T07:35:47;71.38;;;28.23;;
42832;SDS011;64089;51.478;5.692;2023-02-15T07:38:17;95.72;;;37.95;;
42832;SDS011;64089;51.478;5.692;2023-02-15T07:40:43;126.05;;;47.55;;
42832;SDS011;64089;51.478;5.692;2023-02-15T07:43:10;53.70;;;19.45;;
42832;SDS011;64089;51.478;5.692;2023-02-15T07:45:36;43.80;;;17.58;;
42832;SDS011;64089;51.478;5.692;2023-02-15T07:48:03;44.20;;;18.70;;
42832;SDS011;64089;51.478;5.692;2023-02-15T07:50:29;48.75;;;18.55;;
42832;SDS011;64089;51.478;5.692;2023-02-15T07:52:55;45.22;;;18.10;;
42832;SDS011;64089;51.478;5.692;2023-02-15T07:55:21;45.08;;;17.73;;
42832;SDS011;64089;51.478;5.692;2023-02-15T07:57:47;41.80;;;16.75;;
42832;SDS011;64089;51.478;5.692;2023-02-15T08:00:14;42.72;;;18.00;;
42832;SDS011;64089;51.478;5.692;2023-02-15T08:02:41;44.85;;;18.90;;
42832;SDS011;64089;51.478;5.692;2023-02-15T08:05:12;49.50;;;18.83;;
42832;SDS011;64089;51.478;5.692;2023-02-15T08:07:37;44.15;;;16.88;;
42832;SDS011;64089;51.478;5.692;2023-02-15T08:10:03;41.55;;;15.60;;
42832;SDS011;64089;51.478;5.692;2023-02-15T08:12:29;43.67;;;16.00;;
42832;SDS011;64089;51.478;5.692;2023-02-15T08:14:54;120.25;;;44.13;;
42832;SDS011;64089;51.478;5.692;2023-02-15T08:17:20;71.10;;;29.05;;
42832;SDS011;64089;51.478;5.692;2023-02-15T08:19:45;115.07;;;41.35;;
42832;SDS011;64089;51.478;5.692;2023-02-15T08:22:12;150.60;;;53.05;;
42832;SDS011;64089;51.478;5.692;2023-02-15T08:24:39;66.22;;;25.83;;
42832;SDS011;64089;51.478;5.692;2023-02-15T08:27:06;53.50;;;18.77;;
42832;SDS011;64089;51.478;5.692;2023-02-15T08:29:33;44.97;;;18.45;;
42832;SDS011;64089;51.478;5.692;2023-02-15T08:32:07;47.47;;;18.92;;
42832;SDS011;64089;51.478;5.692;2023-02-15T08:34:36;44.13;;;17.42;;
42832;SDS011;64089;51.478;5.692;2023-02-15T08:37:06;39.77;;;15.07;;
42832;SDS011;64089;51.478;5.692;2023-02-15T08:39:31;49.20;;;19.42;;
42832;SDS011;64089;51.478;5.692;2023-02-15T08:41:58;43.03;;;18.05;;
42832;SDS011;64089;51.478;5.692;2023-02-15T08:44:23;40.60;;;16.48;;
42832;SDS011;64089;51.478;5.692;2023-02-15T08:46:49;48.08;;;20.38;;
42832;SDS011;64089;51.478;5.692;2023-02-15T08:49:16;42.95;;;18.25;;
42832;SDS011;64089;51.478;5.692;2023-02-15T08:51:44;40.97;;;18.02;;
42832;SDS011;64089;51.478;5.692;2023-02-15T08:54:12;45.60;;;17.20;;
42832;SDS011;64089;51.478;5.692;2023-02-15T08:56:40;46.03;;;19.02;;
42832;SDS011;64089;51.478;5.692;2023-02-15T08:59:10;42.17;;;18.83;;
42832;SDS011;64089;51.478;5.692;2023-02-15T09:01:45;45.10;;;18.13;;
42832;SDS011;64089;51.478;5.692;2023-02-15T09:04:11;50.38;;;17.13;;
42832;SDS011;64089;51.478;5.692;2023-02-15T09:06:38;46.75;;;18.23;;
42832;SDS011;64089;51.478;5.692;2023-02-15T09:09:05;51.88;;;19.75;;
42832;SDS011;64089;51.478;5.692;2023-02-15T09:11:36;71.28;;;29.27;;
42832;SDS011;64089;51.478;5.692;2023-02-15T09:14:04;201.23;;;72.43;;
42832;SDS011;64089;51.478;5.692;2023-02-15T09:16:33;156.65;;;55.88;;
42832;SDS011;64089;51.478;5.692;2023-02-15T09:19:00;61.42;;;22.00;;
42832;SDS011;64089;51.478;5.692;2023-02-15T09:21:26;47.97;;;19.33;;
42832;SDS011;64089;51.478;5.692;2023-02-15T09:24:00;42.25;;;18.88;;
42832;SDS011;64089;51.478;5.692;2023-02-15T09:26:31;46.05;;;19.17;;
42832;SDS011;64089;51.478;5.692;2023-02-15T09:28:59;39.45;;;16.90;;
42832;SDS011;64089;51.478;5.692;2023-02-15T09:31:32;43.35;;;18.27;;
42832;SDS011;64089;51.478;5.692;2023-02-15T09:34:02;37.88;;;16.52;;
42832;SDS011;64089;51.478;5.692;2023-02-15T09:38:54;44.20;;;18.25;;
42832;SDS011;64089;51.478;5.692;2023-02-15T09:41:34;38.20;;;17.02;;
42832;SDS011;64089;51.478;5.692;2023-02-15T09:52:54;34.78;;;15.73;;
42832;SDS011;64089;51.478;5.692;2023-02-15T09:55:48;39.08;;;16.85;;
42832;SDS011;64089;51.478;5.692;2023-02-15T09:58:26;42.22;;;16.42;;
42832;SDS011;64089;51.478;5.692;2023-02-15T10:09:58;46.05;;;17.77;;
42832;SDS011;64089;51.478;5.692;2023-02-15T10:15:24;45.35;;;17.42;;
42832;SDS011;64089;51.478;5.692;2023-02-15T10:22:02;37.03;;;15.60;;
42832;SDS011;64089;51.478;5.692;2023-02-15T10:24:02;40.08;;;17.42;;
42832;SDS011;64089;51.478;5.692;2023-02-15T10:26:51;37.97;;;16.95;;
42832;SDS011;64089;51.478;5.692;2023-02-15T10:41:03;38.72;;;15.10;;
42832;SDS011;64089;51.478;5.692;2023-02-15T10:43:56;73.22;;;19.58;;
42832;SDS011;64089;51.478;5.692;2023-02-15T10:46:39;45.10;;;16.30;;
42832;SDS011;64089;51.478;5.692;2023-02-15T10:49:41;47.92;;;16.20;;
42832;SDS011;64089;51.478;5.692;2023-02-15T11:08:16;37.20;;;15.45;;
42832;SDS011;64089;51.478;5.692;2023-02-15T11:13:22;37.97;;;16.05;;
42832;SDS011;64089;51.478;5.692;2023-02-15T11:21:11;32.53;;;14.38;;
42832;SDS011;64089;51.478;5.692;2023-02-15T11:23:51;35.88;;;15.82;;
42832;SDS011;64089;51.478;5.692;2023-02-15T11:26:28;35.03;;;13.68;;
42832;SDS011;64089;51.478;5.692;2023-02-15T11:28:59;36.17;;;13.35;;
42832;SDS011;64089;51.478;5.692;2023-02-15T11:31:26;31.80;;;14.20;;
42832;SDS011;64089;51.478;5.692;2023-02-15T11:34:03;32.30;;;13.88;;
42832;SDS011;64089;51.478;5.692;2023-02-15T11:36:37;39.33;;;14.63;;
42832;SDS011;64089;51.478;5.692;2023-02-15T11:39:10;32.40;;;13.27;;
42832;SDS011;64089;51.478;5.692;2023-02-15T11:41:41;33.28;;;14.85;;
42832;SDS011;64089;51.478;5.692;2023-02-15T11:44:15;35.40;;;13.93;;
42832;SDS011;64089;51.478;5.692;2023-02-15T11:46:51;36.55;;;14.35;;
42832;SDS011;64089;51.478;5.692;2023-02-15T11:51:51;30.88;;;13.55;;
42832;SDS011;64089;51.478;5.692;2023-02-15T11:54:18;27.27;;;13.80;;
42832;SDS011;64089;51.478;5.692;2023-02-15T11:56:47;38.53;;;14.38;;
42832;SDS011;64089;51.478;5.692;2023-02-15T11:59:15;29.85;;;13.15;;
42832;SDS011;64089;51.478;5.692;2023-02-15T12:01:46;31.33;;;12.48;;
42832;SDS011;64089;51.478;5.692;2023-02-15T12:12:39;27.83;;;11.02;;
42832;SDS011;64089;51.478;5.692;2023-02-15T12:17:32;31.73;;;13.40;;
42832;SDS011;64089;51.478;5.692;2023-02-15T12:23:04;42.78;;;14.45;;
42832;SDS011;64089;51.478;5.692;2023-02-15T12:25:51;29.70;;;12.55;;
42832;SDS011;64089;51.478;5.692;2023-02-15T12:30:56;32.05;;;13.13;;
42832;SDS011;64089;51.478;5.692;2023-02-15T12:33:27;32.55;;;13.18;;
42832;SDS011;64089;51.478;5.692;2023-02-15T12:36:04;31.73;;;12.82;;
42832;SDS011;64089;51.478;5.692;2023-02-15T12:38:37;30.08;;;12.63;;
42832;SDS011;64089;51.478;5.692;2023-02-15T12:41:04;30.90;;;13.65;;
42832;SDS011;64089;51.478;5.692;2023-02-15T12:43:46;38.38;;;14.27;;
42832;SDS011;64089;51.478;5.692;2023-02-15T12:46:24;31.10;;;12.57;;
42832;SDS011;64089;51.478;5.692;2023-02-15T12:51:51;34.30;;;12.55;;
42832;SDS011;64089;51.478;5.692;2023-02-15T12:54:38;33.88;;;13.35;;
42832;SDS011;64089;51.478;5.692;2023-02-15T13:00:04;33.75;;;13.35;;
42832;SDS011;64089;51.478;5.692;2023-02-15T13:05:04;31.17;;;12.23;;
42832;SDS011;64089;51.478;5.692;2023-02-15T13:07:38;32.45;;;12.68;;
42832;SDS011;64089;51.478;5.692;2023-02-15T13:10:26;36.83;;;14.10;;
42832;SDS011;64089;51.478;5.692;2023-02-15T13:12:58;32.65;;;12.52;;
42832;SDS011;64089;51.478;5.692;2023-02-15T13:15:28;28.50;;;12.50;;
42832;SDS011;64089;51.478;5.692;2023-02-15T13:17:55;33.40;;;13.32;;
42832;SDS011;64089;51.478;5.692;2023-02-15T13:20:22;34.33;;;12.00;;
42832;SDS011;64089;51.478;5.692;2023-02-15T13:22:49;41.13;;;13.80;;
42832;SDS011;64089;51.478;5.692;2023-02-15T13:25:27;33.15;;;12.95;;
42832;SDS011;64089;51.478;5.692;2023-02-15T13:27:57;37.63;;;12.57;;
42832;SDS011;64089;51.478;5.692;2023-02-15T13:30:36;37.13;;;12.75;;
42832;SDS011;64089;51.478;5.692;2023-02-15T13:33:17;32.20;;;13.63;;
42832;SDS011;64089;51.478;5.692;2023-02-15T13:35:56;32.97;;;13.93;;
42832;SDS011;64089;51.478;5.692;2023-02-15T13:52:57;26.60;;;10.85;;
42832;SDS011;64089;51.478;5.692;2023-02-15T14:00:55;27.23;;;10.63;;
42832;SDS011;64089;51.478;5.692;2023-02-15T14:03:56;31.30;;;11.15;;
42832;SDS011;64089;51.478;5.692;2023-02-15T14:09:24;24.58;;;10.50;;
42832;SDS011;64089;51.478;5.692;2023-02-15T14:15:02;23.60;;;9.65;;
42832;SDS011;64089;51.478;5.692;2023-02-15T14:23:10;28.92;;;10.73;;
42832;SDS011;64089;51.478;5.692;2023-02-15T14:25:54;35.47;;;11.88;;
42832;SDS011;64089;51.478;5.692;2023-02-15T14:30:58;29.13;;;10.98;;
42832;SDS011;64089;51.478;5.692;2023-02-15T14:33:37;33.95;;;11.60;;
42832;SDS011;64089;51.478;5.692;2023-02-15T14:36:04;34.20;;;11.60;;
42832;SDS011;64089;51.478;5.692;2023-02-15T14:41:30;29.77;;;11.50;;
42832;SDS011;64089;51.478;5.692;2023-02-15T14:44:27;34.70;;;12.48;;
42832;SDS011;64089;51.478;5.692;2023-02-15T14:47:08;26.13;;;10.23;;
42832;SDS011;64089;51.478;5.692;2023-02-15T14:49:39;28.42;;;11.88;;
42832;SDS011;64089;51.478;5.692;2023-02-15T14:52:06;34.83;;;11.02;;
42832;SDS011;64089;51.478;5.692;2023-02-15T15:02:15;42.72;;;12.20;;
42832;SDS011;64089;51.478;5.692;2023-02-15T15:07:22;32.45;;;12.57;;
42832;SDS011;64089;51.478;5.692;2023-02-15T15:17:56;31.83;;;11.85;;
42832;SDS011;64089;51.478;5.692;2023-02-15T15:20:45;39.85;;;12.75;;
42832;SDS011;64089;51.478;5.692;2023-02-15T15:25:49;33.38;;;13.32;;
42832;SDS011;64089;51.478;5.692;2023-02-15T15:33:50;29.38;;;12.65;;
42832;SDS011;64089;51.478;5.692;2023-02-15T15:37:06;35.65;;;14.18;;
42832;SDS011;64089;51.478;5.692;2023-02-15T15:51:03;33.40;;;13.05;;
42832;SDS011;64089;51.478;5.692;2023-02-15T15:53:50;34.83;;;13.48;;
42832;SDS011;64089;51.478;5.692;2023-02-15T15:56:23;37.20;;;14.45;;
42832;SDS011;64089;51.478;5.692;2023-02-15T15:58:54;34.80;;;14.05;;
42832;SDS011;64089;51.478;5.692;2023-02-15T16:01:30;40.53;;;14.90;;
42832;SDS011;64089;51.478;5.692;2023-02-15T16:03:59;37.17;;;14.55;;
42832;SDS011;64089;51.478;5.692;2023-02-15T16:06:26;30.63;;;12.75;;
42832;SDS011;64089;51.478;5.692;2023-02-15T16:08:53;37.17;;;13.52;;
42832;SDS011;64089;51.478;5.692;2023-02-15T16:11:21;37.25;;;14.80;;
42832;SDS011;64089;51.478;5.692;2023-02-15T16:13:52;41.58;;;14.35;;
42832;SDS011;64089;51.478;5.692;2023-02-15T16:16:26;36.08;;;13.10;;
42832;SDS011;64089;51.478;5.692;2023-02-15T16:18:53;28.70;;;13.02;;
42832;SDS011;64089;51.478;5.692;2023-02-15T16:21:32;28.80;;;12.93;;
42832;SDS011;64089;51.478;5.692;2023-02-15T16:26:58;40.42;;;14.40;;
42832;SDS011;64089;51.478;5.692;2023-02-15T16:29:36;39.10;;;13.40;;
42832;SDS011;64089;51.478;5.692;2023-02-15T16:32:03;34.85;;;12.32;;
42832;SDS011;64089;51.478;5.692;2023-02-15T16:34:31;35.22;;;13.07;;
42832;SDS011;64089;51.478;5.692;2023-02-15T16:37:19;32.70;;;13.25;;
42832;SDS011;64089;51.478;5.692;2023-02-15T16:39:51;33.60;;;13.55;;
42832;SDS011;64089;51.478;5.692;2023-02-15T16:42:17;36.70;;;13.82;;
42832;SDS011;64089;51.478;5.692;2023-02-15T16:44:46;32.28;;;12.73;;
42832;SDS011;64089;51.478;5.692;2023-02-15T16:47:34;29.08;;;12.88;;
42832;SDS011;64089;51.478;5.692;2023-02-15T16:50:05;32.70;;;12.75;;
42832;SDS011;64089;51.478;5.692;2023-02-15T16:52:38;32.15;;;11.77;;
42832;SDS011;64089;51.478;5.692;2023-02-15T16:55:17;34.17;;;14.52;;
42832;SDS011;64089;51.478;5.692;2023-02-15T16:57:47;31.42;;;12.80;;
42832;SDS011;64089;51.478;5.692;2023-02-15T17:00:32;34.50;;;13.63;;
42832;SDS011;64089;51.478;5.692;2023-02-15T17:03:05;29.75;;;12.43;;
42832;SDS011;64089;51.478;5.692;2023-02-15T17:05:52;32.67;;;12.15;;
42832;SDS011;64089;51.478;5.692;2023-02-15T17:11:19;29.42;;;12.65;;
42832;SDS011;64089;51.478;5.692;2023-02-15T17:18:58;26.20;;;13.57;;
42832;SDS011;64089;51.478;5.692;2023-02-15T17:21:28;33.00;;;13.90;;
42832;SDS011;64089;51.478;5.692;2023-02-15T17:24:02;32.70;;;14.60;;
42832;SDS011;64089;51.478;5.692;2023-02-15T17:26:32;36.60;;;15.07;;
42832;SDS011;64089;51.478;5.692;2023-02-15T17:31:46;31.63;;;15.55;;
42832;SDS011;64089;51.478;5.692;2023-02-15T17:37:27;39.83;;;14.65;;
42832;SDS011;64089;51.478;5.692;2023-02-15T17:39:56;38.05;;;14.68;;
42832;SDS011;64089;51.478;5.692;2023-02-15T17:42:23;34.25;;;14.43;;
42832;SDS011;64089;51.478;5.692;2023-02-15T17:44:48;36.97;;;15.60;;
42832;SDS011;64089;51.478;5.692;2023-02-15T17:47:15;39.33;;;14.90;;
42832;SDS011;64089;51.478;5.692;2023-02-15T17:49:43;34.38;;;15.20;;
42832;SDS011;64089;51.478;5.692;2023-02-15T17:52:12;40.17;;;15.88;;
42832;SDS011;64089;51.478;5.692;2023-02-15T17:54:39;40.95;;;16.40;;
42832;SDS011;64089;51.478;5.692;2023-02-15T17:57:23;33.67;;;14.88;;
42832;SDS011;64089;51.478;5.692;2023-02-15T17:59:50;37.17;;;13.98;;
42832;SDS011;64089;51.478;5.692;2023-02-15T18:02:35;36.55;;;14.80;;
42832;SDS011;64089;51.478;5.692;2023-02-15T18:05:22;38.67;;;15.20;;
42832;SDS011;64089;51.478;5.692;2023-02-15T18:08:09;41.58;;;16.92;;
42832;SDS011;64089;51.478;5.692;2023-02-15T18:10:58;38.42;;;16.42;;
42832;SDS011;64089;51.478;5.692;2023-02-15T18:13:43;38.38;;;16.08;;
42832;SDS011;64089;51.478;5.692;2023-02-15T18:16:13;42.72;;;17.30;;
42832;SDS011;64089;51.478;5.692;2023-02-15T18:18:40;33.60;;;15.83;;